Ralston Corner, Vermont
Current Conditions -  °F | °C
As of 12:55 PM on Saturday 25 Oct 2014 (Local Time) from KCDA Reporting Station
Clear Clear  
Wind Chill: 56°   Ceiling: Unl
Heat Index: 56°   Visibility: 10mi
Dew Point: 36°   Wind: 9mph
Humidity: 47%   Direction: 240°WSW
Pressure: 29.66"   Gusts: NA
Location:  44.4417°N, 71.859°W
Report Text: KCDA 251655Z AUTO 24008KT 10SM CLR 13/02 A2966 RMK AO2 T01330022
Loading
Personal Weather Stations






























Interactive Weather Map
Tropical Storm Tracking
New forecast layout! Learn more

10-Day Weather Forecast

Advertisements
Track Severe Weather on mobile